sensor_id;sensor_type;location;lat;lon;timestamp;temperature;humidity
20068;DHT22;10194;50.824;7.134;2022-12-07T00:01:31;5.20;99.90
20068;DHT22;10194;50.824;7.134;2022-12-07T00:04:04;5.20;99.90
20068;DHT22;10194;50.824;7.134;2022-12-07T00:06:40;5.20;99.90
20068;DHT22;10194;50.824;7.134;2022-12-07T00:09:10;5.20;99.90
20068;DHT22;10194;50.824;7.134;2022-12-07T00:11:37;5.20;99.90
20068;DHT22;10194;50.824;7.134;2022-12-07T00:14:06;5.20;99.90
20068;DHT22;10194;50.824;7.134;2022-12-07T00:16:33;5.30;99.90
20068;DHT22;10194;50.824;7.134;2022-12-07T00:19:00;5.20;99.90
20068;DHT22;10194;50.824;7.134;2022-12-07T00:21:28;5.30;99.90
20068;DHT22;10194;50.824;7.134;2022-12-07T00:23:58;5.20;99.90
20068;DHT22;10194;50.824;7.134;2022-12-07T00:26:30;5.20;99.90
20068;DHT22;10194;50.824;7.134;2022-12-07T00:29:00;5.20;99.90
20068;DHT22;10194;50.824;7.134;2022-12-07T00:31:31;5.30;99.90
20068;DHT22;10194;50.824;7.134;2022-12-07T00:34:04;5.30;99.90
20068;DHT22;10194;50.824;7.134;2022-12-07T00:36:31;5.30;99.90
20068;DHT22;10194;50.824;7.134;2022-12-07T00:38:58;5.30;99.90
20068;DHT22;10194;50.824;7.134;2022-12-07T00:41:26;5.30;99.90
20068;DHT22;10194;50.824;7.134;2022-12-07T00:43:52;5.40;99.90
20068;DHT22;10194;50.824;7.134;2022-12-07T00:46:19;5.30;99.90
20068;DHT22;10194;50.824;7.134;2022-12-07T00:48:46;5.40;99.90
20068;DHT22;10194;50.824;7.134;2022-12-07T00:51:14;5.30;99.90
20068;DHT22;10194;50.824;7.134;2022-12-07T00:53:41;5.40;99.90
20068;DHT22;10194;50.824;7.134;2022-12-07T00:58:37;5.40;99.90
20068;DHT22;10194;50.824;7.134;2022-12-07T01:01:04;5.30;99.90
20068;DHT22;10194;50.824;7.134;2022-12-07T01:03:31;5.30;99.90
20068;DHT22;10194;50.824;7.134;2022-12-07T01:05:57;5.30;99.90
20068;DHT22;10194;50.824;7.134;2022-12-07T01:08:24;5.30;99.90
20068;DHT22;10194;50.824;7.134;2022-12-07T01:11:03;5.30;99.90
20068;DHT22;10194;50.824;7.134;2022-12-07T01:13:32;5.30;99.90
20068;DHT22;10194;50.824;7.134;2022-12-07T01:16:03;5.30;99.90
20068;DHT22;10194;50.824;7.134;2022-12-07T01:18:32;5.30;99.90
20068;DHT22;10194;50.824;7.134;2022-12-07T01:21:04;5.30;99.90
20068;DHT22;10194;50.824;7.134;2022-12-07T01:23:31;5.30;99.90
20068;DHT22;10194;50.824;7.134;2022-12-07T01:26:00;5.40;99.90
20068;DHT22;10194;50.824;7.134;2022-12-07T01:28:27;5.40;99.90
20068;DHT22;10194;50.824;7.134;2022-12-07T01:31:05;5.40;99.90
20068;DHT22;10194;50.824;7.134;2022-12-07T01:33:41;5.40;99.90
20068;DHT22;10194;50.824;7.134;2022-12-07T01:36:26;5.40;99.90
20068;DHT22;10194;50.824;7.134;2022-12-07T01:38:58;5.30;99.90
20068;DHT22;10194;50.824;7.134;2022-12-07T01:41:28;5.40;99.90
20068;DHT22;10194;50.824;7.134;2022-12-07T01:46:40;5.40;99.90
20068;DHT22;10194;50.824;7.134;2022-12-07T01:49:16;5.40;99.90
20068;DHT22;10194;50.824;7.134;2022-12-07T01:54:45;5.40;99.90
20068;DHT22;10194;50.824;7.134;2022-12-07T01:57:12;5.50;99.90
20068;DHT22;10194;50.824;7.134;2022-12-07T01:59:39;5.50;99.90
20068;DHT22;10194;50.824;7.134;2022-12-07T02:02:12;5.50;99.90
20068;DHT22;10194;50.824;7.134;2022-12-07T02:04:52;5.50;99.90
20068;DHT22;10194;50.824;7.134;2022-12-07T02:07:20;5.50;99.90
20068;DHT22;10194;50.824;7.134;2022-12-07T02:09:47;5.50;99.90
20068;DHT22;10194;50.824;7.134;2022-12-07T02:12:12;5.50;99.90
20068;DHT22;10194;50.824;7.134;2022-12-07T02:14:38;5.50;99.90
20068;DHT22;10194;50.824;7.134;2022-12-07T02:17:11;5.60;99.90
20068;DHT22;10194;50.824;7.134;2022-12-07T02:29:10;5.60;99.90
20068;DHT22;10194;50.824;7.134;2022-12-07T02:31:49;5.60;99.90
20068;DHT22;10194;50.824;7.134;2022-12-07T02:35:00;5.60;99.90
20068;DHT22;10194;50.824;7.134;2022-12-07T02:40:12;5.60;99.90
20068;DHT22;10194;50.824;7.134;2022-12-07T02:42:44;5.50;99.90
20068;DHT22;10194;50.824;7.134;2022-12-07T02:45:15;5.50;99.90
20068;DHT22;10194;50.824;7.134;2022-12-07T02:47:44;5.50;99.90
20068;DHT22;10194;50.824;7.134;2022-12-07T02:50:12;5.50;99.90
20068;DHT22;10194;50.824;7.134;2022-12-07T02:52:38;5.50;99.90
20068;DHT22;10194;50.824;7.134;2022-12-07T02:55:05;5.60;99.90
20068;DHT22;10194;50.824;7.134;2022-12-07T02:57:36;5.50;99.90
20068;DHT22;10194;50.824;7.134;2022-12-07T03:00:20;5.60;99.90
20068;DHT22;10194;50.824;7.134;2022-12-07T03:03:02;5.50;99.90
20068;DHT22;10194;50.824;7.134;2022-12-07T03:05:52;5.50;99.90
20068;DHT22;10194;50.824;7.134;2022-12-07T03:11:12;5.50;99.90
20068;DHT22;10194;50.824;7.134;2022-12-07T03:16:41;5.60;99.90
20068;DHT22;10194;50.824;7.134;2022-12-07T03:19:14;5.50;99.90
20068;DHT22;10194;50.824;7.134;2022-12-07T03:21:57;5.50;99.90
20068;DHT22;10194;50.824;7.134;2022-12-07T03:24:33;5.50;99.90
20068;DHT22;10194;50.824;7.134;2022-12-07T03:27:20;5.50;99.90
20068;DHT22;10194;50.824;7.134;2022-12-07T03:29:54;5.50;99.90
20068;DHT22;10194;50.824;7.134;2022-12-07T03:32:37;5.50;99.90
20068;DHT22;10194;50.824;7.134;2022-12-07T03:35:27;5.50;99.90
20068;DHT22;10194;50.824;7.134;2022-12-07T03:38:12;5.50;99.90
20068;DHT22;10194;50.824;7.134;2022-12-07T03:40:59;5.50;99.90
20068;DHT22;10194;50.824;7.134;2022-12-07T03:43:29;5.50;99.90
20068;DHT22;10194;50.824;7.134;2022-12-07T03:49:12;5.50;99.90
20068;DHT22;10194;50.824;7.134;2022-12-07T03:55:00;5.50;99.90
20068;DHT22;10194;50.824;7.134;2022-12-07T03:57:33;5.50;99.90
20068;DHT22;10194;50.824;7.134;2022-12-07T04:00:00;5.50;99.90
20068;DHT22;10194;50.824;7.134;2022-12-07T04:02:27;5.50;99.90
20068;DHT22;10194;50.824;7.134;2022-12-07T04:04:55;5.50;99.90
20068;DHT22;10194;50.824;7.134;2022-12-07T04:07:21;5.50;99.90
20068;DHT22;10194;50.824;7.134;2022-12-07T04:09:47;5.50;99.90
20068;DHT22;10194;50.824;7.134;2022-12-07T04:12:13;5.50;99.90
20068;DHT22;10194;50.824;7.134;2022-12-07T04:14:38;5.50;99.90
20068;DHT22;10194;50.824;7.134;2022-12-07T04:17:04;5.50;99.90
20068;DHT22;10194;50.824;7.134;2022-12-07T04:19:32;5.50;99.90
20068;DHT22;10194;50.824;7.134;2022-12-07T04:22:00;5.50;99.90
20068;DHT22;10194;50.824;7.134;2022-12-07T04:24:27;5.40;99.90
20068;DHT22;10194;50.824;7.134;2022-12-07T04:26:53;5.40;99.90
20068;DHT22;10194;50.824;7.134;2022-12-07T04:29:19;5.40;99.90
20068;DHT22;10194;50.824;7.134;2022-12-07T04:31:46;5.40;99.90
20068;DHT22;10194;50.824;7.134;2022-12-07T04:34:12;5.40;99.90
20068;DHT22;10194;50.824;7.134;2022-12-07T04:36:43;5.40;99.90
20068;DHT22;10194;50.824;7.134;2022-12-07T04:39:28;5.40;99.90
20068;DHT22;10194;50.824;7.134;2022-12-07T04:41:56;5.40;99.90
20068;DHT22;10194;50.824;7.134;2022-12-07T04:44:23;5.40;99.90
20068;DHT22;10194;50.824;7.134;2022-12-07T04:46:50;5.40;99.90
20068;DHT22;10194;50.824;7.134;2022-12-07T04:49:17;5.40;99.90
20068;DHT22;10194;50.824;7.134;2022-12-07T04:51:44;5.30;99.90
20068;DHT22;10194;50.824;7.134;2022-12-07T04:54:10;5.40;99.90
20068;DHT22;10194;50.824;7.134;2022-12-07T04:56:37;5.40;99.90
20068;DHT22;10194;50.824;7.134;2022-12-07T04:59:04;5.40;99.90
20068;DHT22;10194;50.824;7.134;2022-12-07T05:01:30;5.30;99.90
20068;DHT22;10194;50.824;7.134;2022-12-07T05:03:56;5.30;99.90
20068;DHT22;10194;50.824;7.134;2022-12-07T05:06:22;5.20;99.90
20068;DHT22;10194;50.824;7.134;2022-12-07T05:08:48;5.30;99.90
20068;DHT22;10194;50.824;7.134;2022-12-07T05:11:14;5.30;99.90
20068;DHT22;10194;50.824;7.134;2022-12-07T05:13:59;5.30;99.90
20068;DHT22;10194;50.824;7.134;2022-12-07T05:16:25;5.30;99.90
20068;DHT22;10194;50.824;7.134;2022-12-07T05:18:51;5.30;99.90
20068;DHT22;10194;50.824;7.134;2022-12-07T05:21:17;5.30;99.90
20068;DHT22;10194;50.824;7.134;2022-12-07T05:23:43;5.30;99.90
20068;DHT22;10194;50.824;7.134;2022-12-07T05:26:09;5.30;99.90
20068;DHT22;10194;50.824;7.134;2022-12-07T05:28:35;5.30;99.90
20068;DHT22;10194;50.824;7.134;2022-12-07T05:31:00;5.30;99.90
20068;DHT22;10194;50.824;7.134;2022-12-07T05:33:26;5.20;99.90
20068;DHT22;10194;50.824;7.134;2022-12-07T05:35:52;5.20;99.90
20068;DHT22;10194;50.824;7.134;2022-12-07T05:38:18;5.30;99.90
20068;DHT22;10194;50.824;7.134;2022-12-07T05:40:44;5.30;99.90
20068;DHT22;10194;50.824;7.134;2022-12-07T05:43:10;5.30;99.90
20068;DHT22;10194;50.824;7.134;2022-12-07T05:45:36;5.20;99.90
20068;DHT22;10194;50.824;7.134;2022-12-07T05:48:01;5.20;99.90
20068;DHT22;10194;50.824;7.134;2022-12-07T05:50:27;5.20;99.90
20068;DHT22;10194;50.824;7.134;2022-12-07T05:52:53;5.20;99.90
20068;DHT22;10194;50.824;7.134;2022-12-07T05:55:19;5.20;99.90
20068;DHT22;10194;50.824;7.134;2022-12-07T05:57:45;5.20;99.90
20068;DHT22;10194;50.824;7.134;2022-12-07T06:00:32;5.20;99.90
20068;DHT22;10194;50.824;7.134;2022-12-07T06:02:57;5.20;99.90
20068;DHT22;10194;50.824;7.134;2022-12-07T06:05:23;5.20;99.90
20068;DHT22;10194;50.824;7.134;2022-12-07T06:07:49;5.20;99.90
20068;DHT22;10194;50.824;7.134;2022-12-07T06:10:15;5.20;99.90
20068;DHT22;10194;50.824;7.134;2022-12-07T06:12:41;5.20;99.90
20068;DHT22;10194;50.824;7.134;2022-12-07T06:15:09;5.20;99.90
20068;DHT22;10194;50.824;7.134;2022-12-07T06:17:36;5.20;99.90
20068;DHT22;10194;50.824;7.134;2022-12-07T06:20:02;5.20;99.90
20068;DHT22;10194;50.824;7.134;2022-12-07T06:22:28;5.10;99.90
20068;DHT22;10194;50.824;7.134;2022-12-07T06:24:54;5.10;99.90
20068;DHT22;10194;50.824;7.134;2022-12-07T06:27:20;5.00;99.90
20068;DHT22;10194;50.824;7.134;2022-12-07T06:29:46;5.00;99.90
20068;DHT22;10194;50.824;7.134;2022-12-07T06:32:12;4.80;99.90
20068;DHT22;10194;50.824;7.134;2022-12-07T06:34:37;4.70;99.90
20068;DHT22;10194;50.824;7.134;2022-12-07T06:37:04;4.70;99.90
20068;DHT22;10194;50.824;7.134;2022-12-07T06:39:30;4.70;99.90
20068;DHT22;10194;50.824;7.134;2022-12-07T06:41:56;4.70;99.90
20068;DHT22;10194;50.824;7.134;2022-12-07T06:44:23;4.60;99.90
20068;DHT22;10194;50.824;7.134;2022-12-07T06:46:50;4.60;99.90
20068;DHT22;10194;50.824;7.134;2022-12-07T06:49:16;4.60;99.90
20068;DHT22;10194;50.824;7.134;2022-12-07T06:51:42;4.60;99.90
20068;DHT22;10194;50.824;7.134;2022-12-07T06:54:09;4.50;99.90
20068;DHT22;10194;50.824;7.134;2022-12-07T06:56:36;4.60;99.90
20068;DHT22;10194;50.824;7.134;2022-12-07T06:59:03;4.50;99.90
20068;DHT22;10194;50.824;7.134;2022-12-07T07:01:31;4.50;99.90
20068;DHT22;10194;50.824;7.134;2022-12-07T07:03:57;4.50;99.90
20068;DHT22;10194;50.824;7.134;2022-12-07T07:06:23;4.50;99.90
20068;DHT22;10194;50.824;7.134;2022-12-07T07:08:48;4.50;99.90
20068;DHT22;10194;50.824;7.134;2022-12-07T07:11:14;4.60;99.90
20068;DHT22;10194;50.824;7.134;2022-12-07T07:13:40;4.60;99.90
20068;DHT22;10194;50.824;7.134;2022-12-07T07:16:06;4.60;99.90
20068;DHT22;10194;50.824;7.134;2022-12-07T07:18:32;4.70;99.90
20068;DHT22;10194;50.824;7.134;2022-12-07T07:20:58;4.60;99.90
20068;DHT22;10194;50.824;7.134;2022-12-07T07:23:24;4.70;99.90
20068;DHT22;10194;50.824;7.134;2022-12-07T07:25:50;4.80;99.90
20068;DHT22;10194;50.824;7.134;2022-12-07T07:28:16;4.80;99.90
20068;DHT22;10194;50.824;7.134;2022-12-07T07:30:42;4.80;99.90
20068;DHT22;10194;50.824;7.134;2022-12-07T07:33:09;4.80;99.90
20068;DHT22;10194;50.824;7.134;2022-12-07T07:35:35;4.80;99.90
20068;DHT22;10194;50.824;7.134;2022-12-07T07:38:01;4.80;99.90
20068;DHT22;10194;50.824;7.134;2022-12-07T07:40:28;4.80;99.90
20068;DHT22;10194;50.824;7.134;2022-12-07T07:42:57;4.80;99.90
20068;DHT22;10194;50.824;7.134;2022-12-07T07:45:24;4.80;99.90
20068;DHT22;10194;50.824;7.134;2022-12-07T07:47:51;4.70;99.90
20068;DHT22;10194;50.824;7.134;2022-12-07T07:50:17;4.70;99.90
20068;DHT22;10194;50.824;7.134;2022-12-07T07:52:44;4.70;99.90
20068;DHT22;10194;50.824;7.134;2022-12-07T07:55:11;4.80;99.90
20068;DHT22;10194;50.824;7.134;2022-12-07T07:57:38;4.80;99.90
20068;DHT22;10194;50.824;7.134;2022-12-07T08:00:07;4.80;99.90
20068;DHT22;10194;50.824;7.134;2022-12-07T08:02:35;4.80;99.90
20068;DHT22;10194;50.824;7.134;2022-12-07T08:05:00;4.90;99.90
20068;DHT22;10194;50.824;7.134;2022-12-07T08:07:27;4.90;99.90
20068;DHT22;10194;50.824;7.134;2022-12-07T08:09:53;4.90;99.90
20068;DHT22;10194;50.824;7.134;2022-12-07T08:12:19;4.90;99.90
20068;DHT22;10194;50.824;7.134;2022-12-07T08:14:45;5.00;99.90
20068;DHT22;10194;50.824;7.134;2022-12-07T08:17:10;5.10;99.90
20068;DHT22;10194;50.824;7.134;2022-12-07T08:19:37;5.10;99.90
20068;DHT22;10194;50.824;7.134;2022-12-07T08:22:03;5.20;99.90
20068;DHT22;10194;50.824;7.134;2022-12-07T08:24:29;5.20;99.90
20068;DHT22;10194;50.824;7.134;2022-12-07T08:26:55;5.30;99.90
20068;DHT22;10194;50.824;7.134;2022-12-07T08:29:21;5.30;99.90
20068;DHT22;10194;50.824;7.134;2022-12-07T08:31:47;5.30;99.90
20068;DHT22;10194;50.824;7.134;2022-12-07T08:34:13;5.40;99.90
20068;DHT22;10194;50.824;7.134;2022-12-07T08:36:39;5.40;99.90
20068;DHT22;10194;50.824;7.134;2022-12-07T08:39:05;5.50;99.90
20068;DHT22;10194;50.824;7.134;2022-12-07T08:41:31;5.50;99.90
20068;DHT22;10194;50.824;7.134;2022-12-07T08:43:57;5.50;99.90
20068;DHT22;10194;50.824;7.134;2022-12-07T08:46:35;5.50;99.90
20068;DHT22;10194;50.824;7.134;2022-12-07T08:49:13;5.60;99.90
20068;DHT22;10194;50.824;7.134;2022-12-07T08:51:44;5.60;99.90
20068;DHT22;10194;50.824;7.134;2022-12-07T08:54:16;5.60;99.90
20068;DHT22;10194;50.824;7.134;2022-12-07T08:56:44;5.50;99.90
20068;DHT22;10194;50.824;7.134;2022-12-07T08:59:13;5.50;99.90
20068;DHT22;10194;50.824;7.134;2022-12-07T09:01:40;5.50;99.90
20068;DHT22;10194;50.824;7.134;2022-12-07T09:04:06;5.50;99.90
20068;DHT22;10194;50.824;7.134;2022-12-07T09:06:31;5.50;99.90
20068;DHT22;10194;50.824;7.134;2022-12-07T09:08:58;5.50;99.90
20068;DHT22;10194;50.824;7.134;2022-12-07T09:11:26;5.60;99.90
20068;DHT22;10194;50.824;7.134;2022-12-07T09:13:51;5.70;99.90
20068;DHT22;10194;50.824;7.134;2022-12-07T09:16:17;5.80;99.90
20068;DHT22;10194;50.824;7.134;2022-12-07T09:18:43;5.90;99.90
20068;DHT22;10194;50.824;7.134;2022-12-07T09:21:09;5.90;99.90
20068;DHT22;10194;50.824;7.134;2022-12-07T09:23:35;5.90;99.90
20068;DHT22;10194;50.824;7.134;2022-12-07T09:26:02;6.00;99.90
20068;DHT22;10194;50.824;7.134;2022-12-07T09:28:28;5.90;99.90
20068;DHT22;10194;50.824;7.134;2022-12-07T09:30:54;6.00;99.90
20068;DHT22;10194;50.824;7.134;2022-12-07T09:33:19;6.10;99.90
20068;DHT22;10194;50.824;7.134;2022-12-07T09:35:47;6.20;99.90
20068;DHT22;10194;50.824;7.134;2022-12-07T09:38:14;6.30;99.90
20068;DHT22;10194;50.824;7.134;2022-12-07T09:40:41;6.40;99.90
20068;DHT22;10194;50.824;7.134;2022-12-07T09:43:18;6.40;99.90
20068;DHT22;10194;50.824;7.134;2022-12-07T09:45:46;6.50;99.90
20068;DHT22;10194;50.824;7.134;2022-12-07T09:48:22;6.50;99.90
20068;DHT22;10194;50.824;7.134;2022-12-07T09:50:52;6.50;99.90
20068;DHT22;10194;50.824;7.134;2022-12-07T09:53:32;6.40;99.90
20068;DHT22;10194;50.824;7.134;2022-12-07T09:55:59;6.40;99.90
20068;DHT22;10194;50.824;7.134;2022-12-07T09:58:27;6.30;99.90
20068;DHT22;10194;50.824;7.134;2022-12-07T10:00:57;6.20;99.90
20068;DHT22;10194;50.824;7.134;2022-12-07T10:03:27;6.10;99.90
20068;DHT22;10194;50.824;7.134;2022-12-07T10:05:54;6.10;99.90
20068;DHT22;10194;50.824;7.134;2022-12-07T10:08:21;6.00;99.90
20068;DHT22;10194;50.824;7.134;2022-12-07T10:10:51;5.90;99.90
20068;DHT22;10194;50.824;7.134;2022-12-07T10:13:35;5.90;99.90
20068;DHT22;10194;50.824;7.134;2022-12-07T10:16:02;5.90;99.90
20068;DHT22;10194;50.824;7.134;2022-12-07T10:21:20;6.10;99.90
20068;DHT22;10194;50.824;7.134;2022-12-07T10:24:05;6.20;99.90
20068;DHT22;10194;50.824;7.134;2022-12-07T10:29:20;6.40;99.90
20068;DHT22;10194;50.824;7.134;2022-12-07T10:31:59;6.40;99.90
20068;DHT22;10194;50.824;7.134;2022-12-07T10:34:36;6.60;99.90
20068;DHT22;10194;50.824;7.134;2022-12-07T10:39:57;6.80;99.90
20068;DHT22;10194;50.824;7.134;2022-12-07T10:42:27;6.90;99.90
20068;DHT22;10194;50.824;7.134;2022-12-07T10:50:56;6.90;99.90
20068;DHT22;10194;50.824;7.134;2022-12-07T10:59:23;6.80;99.90
20068;DHT22;10194;50.824;7.134;2022-12-07T11:08:03;6.60;99.90
20068;DHT22;10194;50.824;7.134;2022-12-07T11:19:11;6.80;99.90
20068;DHT22;10194;50.824;7.134;2022-12-07T11:21:55;6.80;99.90
20068;DHT22;10194;50.824;7.134;2022-12-07T11:25:16;6.90;99.90
20068;DHT22;10194;50.824;7.134;2022-12-07T11:30:10;6.90;99.90
20068;DHT22;10194;50.824;7.134;2022-12-07T11:35:53;7.00;99.90
20068;DHT22;10194;50.824;7.134;2022-12-07T11:41:12;7.10;99.90
20068;DHT22;10194;50.824;7.134;2022-12-07T11:43:52;7.00;99.90
20068;DHT22;10194;50.824;7.134;2022-12-07T11:46:36;6.90;99.90
20068;DHT22;10194;50.824;7.134;2022-12-07T11:49:19;7.00;99.90
20068;DHT22;10194;50.824;7.134;2022-12-07T11:51:51;6.90;99.90
20068;DHT22;10194;50.824;7.134;2022-12-07T11:54:23;6.90;99.90
20068;DHT22;10194;50.824;7.134;2022-12-07T11:56:54;6.90;99.90
20068;DHT22;10194;50.824;7.134;2022-12-07T11:59:33;7.00;99.90
20068;DHT22;10194;50.824;7.134;2022-12-07T12:02:33;6.90;99.90
20068;DHT22;10194;50.824;7.134;2022-12-07T12:05:19;6.90;99.90
20068;DHT22;10194;50.824;7.134;2022-12-07T12:08:02;6.90;99.90
20068;DHT22;10194;50.824;7.134;2022-12-07T12:11:00;6.80;99.90
20068;DHT22;10194;50.824;7.134;2022-12-07T12:19:23;6.60;99.90
20068;DHT22;10194;50.824;7.134;2022-12-07T12:22:18;6.50;99.90
20068;DHT22;10194;50.824;7.134;2022-12-07T12:24:53;6.40;99.90
20068;DHT22;10194;50.824;7.134;2022-12-07T12:27:31;6.40;99.90
20068;DHT22;10194;50.824;7.134;2022-12-07T12:30:02;6.30;99.90
20068;DHT22;10194;50.824;7.134;2022-12-07T12:32:41;6.30;99.90
20068;DHT22;10194;50.824;7.134;2022-12-07T12:38:31;6.20;99.90
20068;DHT22;10194;50.824;7.134;2022-12-07T12:41:01;6.20;99.90
20068;DHT22;10194;50.824;7.134;2022-12-07T12:48:57;6.30;99.90
20068;DHT22;10194;50.824;7.134;2022-12-07T12:51:45;6.30;99.90
20068;DHT22;10194;50.824;7.134;2022-12-07T12:54:19;6.30;99.90
20068;DHT22;10194;50.824;7.134;2022-12-07T12:59:57;6.30;99.90
20068;DHT22;10194;50.824;7.134;2022-12-07T13:02:28;6.30;99.90
20068;DHT22;10194;50.824;7.134;2022-12-07T13:10:31;6.30;99.90
20068;DHT22;10194;50.824;7.134;2022-12-07T13:15:41;6.40;99.90
20068;DHT22;10194;50.824;7.134;2022-12-07T13:20:58;6.40;99.90
20068;DHT22;10194;50.824;7.134;2022-12-07T13:26:16;6.40;99.90
20068;DHT22;10194;50.824;7.134;2022-12-07T13:29:14;6.30;99.90
20068;DHT22;10194;50.824;7.134;2022-12-07T13:31:56;6.30;99.90
20068;DHT22;10194;50.824;7.134;2022-12-07T13:34:40;6.30;99.90
20068;DHT22;10194;50.824;7.134;2022-12-07T13:39:56;6.30;99.90
20068;DHT22;10194;50.824;7.134;2022-12-07T13:42:29;6.30;99.90
20068;DHT22;10194;50.824;7.134;2022-12-07T13:44:58;6.30;99.90
20068;DHT22;10194;50.824;7.134;2022-12-07T13:47:35;6.30;99.90
20068;DHT22;10194;50.824;7.134;2022-12-07T13:50:29;6.30;99.90
20068;DHT22;10194;50.824;7.134;2022-12-07T13:53:00;6.30;99.90
20068;DHT22;10194;50.824;7.134;2022-12-07T13:55:28;6.30;99.90
20068;DHT22;10194;50.824;7.134;2022-12-07T13:57:55;6.30;99.90
20068;DHT22;10194;50.824;7.134;2022-12-07T14:00:23;6.30;99.90
20068;DHT22;10194;50.824;7.134;2022-12-07T14:05:41;6.40;99.90
20068;DHT22;10194;50.824;7.134;2022-12-07T14:10:56;6.40;99.90
20068;DHT22;10194;50.824;7.134;2022-12-07T14:13:33;6.40;99.90
20068;DHT22;10194;50.824;7.134;2022-12-07T14:16:23;6.40;99.90
20068;DHT22;10194;50.824;7.134;2022-12-07T14:18:54;6.40;99.90
20068;DHT22;10194;50.824;7.134;2022-12-07T14:21:25;6.40;99.90
20068;DHT22;10194;50.824;7.134;2022-12-07T14:24:22;6.40;99.90
20068;DHT22;10194;50.824;7.134;2022-12-07T14:26:49;6.30;99.90
20068;DHT22;10194;50.824;7.134;2022-12-07T14:29:42;6.30;99.90
20068;DHT22;10194;50.824;7.134;2022-12-07T14:32:20;6.30;99.90
20068;DHT22;10194;50.824;7.134;2022-12-07T14:35:02;6.30;99.90
20068;DHT22;10194;50.824;7.134;2022-12-07T14:37:36;6.30;99.90
20068;DHT22;10194;50.824;7.134;2022-12-07T14:40:03;6.20;99.90
20068;DHT22;10194;50.824;7.134;2022-12-07T14:42:31;6.20;99.90
20068;DHT22;10194;50.824;7.134;2022-12-07T14:44:57;6.20;99.90
20068;DHT22;10194;50.824;7.134;2022-12-07T14:47:24;6.20;99.90
20068;DHT22;10194;50.824;7.134;2022-12-07T14:49:50;6.20;99.90
20068;DHT22;10194;50.824;7.134;2022-12-07T14:52:19;6.10;99.90
20068;DHT22;10194;50.824;7.134;2022-12-07T14:54:47;6.10;99.90
20068;DHT22;10194;50.824;7.134;2022-12-07T14:57:13;6.10;99.90
20068;DHT22;10194;50.824;7.134;2022-12-07T14:59:39;6.00;99.90
20068;DHT22;10194;50.824;7.134;2022-12-07T15:02:05;6.00;99.90
20068;DHT22;10194;50.824;7.134;2022-12-07T15:04:32;6.00;99.90
20068;DHT22;10194;50.824;7.134;2022-12-07T15:07:01;6.00;99.90
20068;DHT22;10194;50.824;7.134;2022-12-07T15:09:28;5.90;99.90
20068;DHT22;10194;50.824;7.134;2022-12-07T15:11:54;5.90;99.90
20068;DHT22;10194;50.824;7.134;2022-12-07T15:14:20;6.00;99.90
20068;DHT22;10194;50.824;7.134;2022-12-07T15:16:46;5.90;99.90
20068;DHT22;10194;50.824;7.134;2022-12-07T15:19:14;5.90;99.90
20068;DHT22;10194;50.824;7.134;2022-12-07T15:21:42;5.90;99.90
20068;DHT22;10194;50.824;7.134;2022-12-07T15:24:12;5.90;99.90
20068;DHT22;10194;50.824;7.134;2022-12-07T15:26:39;5.90;99.90
20068;DHT22;10194;50.824;7.134;2022-12-07T15:29:05;5.90;99.90
20068;DHT22;10194;50.824;7.134;2022-12-07T15:31:32;5.90;99.90
20068;DHT22;10194;50.824;7.134;2022-12-07T15:33:58;5.80;99.90
20068;DHT22;10194;50.824;7.134;2022-12-07T15:36:26;5.90;99.90
20068;DHT22;10194;50.824;7.134;2022-12-07T15:38:53;5.90;99.90
20068;DHT22;10194;50.824;7.134;2022-12-07T15:41:19;5.80;99.90
20068;DHT22;10194;50.824;7.134;2022-12-07T15:43:45;5.80;99.90
20068;DHT22;10194;50.824;7.134;2022-12-07T15:46:39;5.80;99.90
20068;DHT22;10194;50.824;7.134;2022-12-07T15:49:15;5.80;99.90
20068;DHT22;10194;50.824;7.134;2022-12-07T15:51:43;5.80;99.90
20068;DHT22;10194;50.824;7.134;2022-12-07T15:54:28;5.90;99.90
20068;DHT22;10194;50.824;7.134;2022-12-07T15:56:56;5.90;99.90
20068;DHT22;10194;50.824;7.134;2022-12-07T15:59:22;5.90;99.90
20068;DHT22;10194;50.824;7.134;2022-12-07T16:01:48;5.90;99.90
20068;DHT22;10194;50.824;7.134;2022-12-07T16:04:14;5.90;99.90
20068;DHT22;10194;50.824;7.134;2022-12-07T16:06:40;5.90;99.90
20068;DHT22;10194;50.824;7.134;2022-12-07T16:09:06;5.80;99.90
20068;DHT22;10194;50.824;7.134;2022-12-07T16:11:32;5.80;99.90
20068;DHT22;10194;50.824;7.134;2022-12-07T16:13:58;5.80;99.90
20068;DHT22;10194;50.824;7.134;2022-12-07T16:16:27;5.80;99.90
20068;DHT22;10194;50.824;7.134;2022-12-07T16:18:53;5.80;99.90
20068;DHT22;10194;50.824;7.134;2022-12-07T16:21:19;5.80;99.90
20068;DHT22;10194;50.824;7.134;2022-12-07T16:23:45;5.80;99.90
20068;DHT22;10194;50.824;7.134;2022-12-07T16:26:16;5.80;99.90
20068;DHT22;10194;50.824;7.134;2022-12-07T16:28:44;5.80;99.90
20068;DHT22;10194;50.824;7.134;2022-12-07T16:31:12;5.80;99.90
20068;DHT22;10194;50.824;7.134;2022-12-07T16:33:40;5.70;99.90
20068;DHT22;10194;50.824;7.134;2022-12-07T16:36:10;5.60;99.90
20068;DHT22;10194;50.824;7.134;2022-12-07T16:38:36;5.60;99.90
20068;DHT22;10194;50.824;7.134;2022-12-07T16:41:04;5.60;99.90
20068;DHT22;10194;50.824;7.134;2022-12-07T16:43:30;5.70;99.90
20068;DHT22;10194;50.824;7.134;2022-12-07T16:45:56;5.70;99.90
20068;DHT22;10194;50.824;7.134;2022-12-07T16:48:22;5.70;99.90
20068;DHT22;10194;50.824;7.134;2022-12-07T16:50:48;5.70;99.90
20068;DHT22;10194;50.824;7.134;2022-12-07T16:53:14;5.70;99.90
20068;DHT22;10194;50.824;7.134;2022-12-07T16:55:44;5.70;99.90
20068;DHT22;10194;50.824;7.134;2022-12-07T16:58:12;5.70;99.90
20068;DHT22;10194;50.824;7.134;2022-12-07T17:00:39;5.60;99.90
20068;DHT22;10194;50.824;7.134;2022-12-07T17:03:06;5.60;99.90
20068;DHT22;10194;50.824;7.134;2022-12-07T17:05:32;5.50;99.90
20068;DHT22;10194;50.824;7.134;2022-12-07T17:07:58;5.50;99.90
20068;DHT22;10194;50.824;7.134;2022-12-07T17:10:25;5.40;99.90
20068;DHT22;10194;50.824;7.134;2022-12-07T17:12:51;5.40;99.90
20068;DHT22;10194;50.824;7.134;2022-12-07T17:15:17;5.40;99.90
20068;DHT22;10194;50.824;7.134;2022-12-07T17:17:44;5.40;99.90
20068;DHT22;10194;50.824;7.134;2022-12-07T17:20:12;5.30;99.90
20068;DHT22;10194;50.824;7.134;2022-12-07T17:22:39;5.30;99.90
20068;DHT22;10194;50.824;7.134;2022-12-07T17:25:05;5.30;99.90
20068;DHT22;10194;50.824;7.134;2022-12-07T17:27:32;5.30;99.90
20068;DHT22;10194;50.824;7.134;2022-12-07T17:29:58;5.30;99.90
20068;DHT22;10194;50.824;7.134;2022-12-07T17:32:23;5.30;99.90
20068;DHT22;10194;50.824;7.134;2022-12-07T17:34:49;5.40;99.90
20068;DHT22;10194;50.824;7.134;2022-12-07T17:37:15;5.40;99.90
20068;DHT22;10194;50.824;7.134;2022-12-07T17:39:41;5.40;99.90
20068;DHT22;10194;50.824;7.134;2022-12-07T17:42:08;5.40;99.90
20068;DHT22;10194;50.824;7.134;2022-12-07T17:44:53;5.40;99.90
20068;DHT22;10194;50.824;7.134;2022-12-07T17:47:18;5.40;99.90
20068;DHT22;10194;50.824;7.134;2022-12-07T17:49:46;5.40;99.90
20068;DHT22;10194;50.824;7.134;2022-12-07T17:52:13;5.40;99.90
20068;DHT22;10194;50.824;7.134;2022-12-07T17:54:58;5.50;99.90
20068;DHT22;10194;50.824;7.134;2022-12-07T17:57:23;5.40;99.90
20068;DHT22;10194;50.824;7.134;2022-12-07T17:59:49;5.50;99.90